createdAt,value
2023-03-29T00:02:42.900Z,76.65
2023-03-29T00:07:45.992Z,76.44
2023-03-29T00:12:49.058Z,76.10
2023-03-29T00:17:51.687Z,76.01
2023-03-29T00:22:54.189Z,76.35
2023-03-29T00:27:56.541Z,75.47
2023-03-29T00:32:58.980Z,74.69
2023-03-29T00:38:01.470Z,74.08
2023-03-29T00:43:03.791Z,73.49
2023-03-29T00:48:11.607Z,72.79
2023-03-29T00:53:18.104Z,73.28
2023-03-29T00:58:33.134Z,72.19
2023-03-29T01:03:46.789Z,71.86
2023-03-29T01:08:57.481Z,72.00
2023-03-29T01:14:04.717Z,70.86
2023-03-29T01:19:10.961Z,71.61
2023-03-29T01:24:22.616Z,71.86
2023-03-29T01:29:33.029Z,71.61
2023-03-29T01:34:46.540Z,71.22
2023-03-29T01:39:48.972Z,71.86
2023-03-29T01:45:02.946Z,71.05
2023-03-29T01:50:14.954Z,70.56
2023-03-29T01:55:22.822Z,71.04
2023-03-29T02:00:28.256Z,71.40
2023-03-29T02:05:32.037Z,70.56
2023-03-29T02:10:37.059Z,70.64
2023-03-29T02:15:40.149Z,70.30
2023-03-29T02:20:50.116Z,71.11
2023-03-29T02:25:57.241Z,70.71
2023-03-29T02:31:10.416Z,71.12
2023-03-29T02:36:27.815Z,71.20
2023-03-29T02:41:30.871Z,70.42
2023-03-29T02:46:35.028Z,71.31
2023-03-29T02:51:38.910Z,70.94
2023-03-29T02:57:00.215Z,71.76
2023-03-29T03:02:03.673Z,71.70
2023-03-29T03:07:06.391Z,71.31
2023-03-29T03:12:09.454Z,71.26
2023-03-29T03:17:11.759Z,71.60
2023-03-29T03:22:15.524Z,71.92
2023-03-29T03:27:18.565Z,71.39
2023-03-29T03:32:21.478Z,72.48
2023-03-29T03:37:42.536Z,71.24
2023-03-29T03:42:45.368Z,70.99
2023-03-29T03:47:48.369Z,70.91
2023-03-29T03:53:13.205Z,70.87
2023-03-29T03:58:36.848Z,70.63
2023-03-29T04:03:39.891Z,71.75
2023-03-29T04:08:45.803Z,71.95
2023-03-29T04:13:55.738Z,72.07
2023-03-29T04:19:16.983Z,72.03
2023-03-29T04:24:20.933Z,72.19
2023-03-29T04:29:45.153Z,73.06
2023-03-29T04:34:56.980Z,73.38
2023-03-29T04:40:04.431Z,73.61
2023-03-29T04:45:19.014Z,73.76
2023-03-29T04:50:40.576Z,72.89
2023-03-29T04:55:43.801Z,72.65
2023-03-29T05:00:50.378Z,71.29
2023-03-29T05:06:08.087Z,70.77
2023-03-29T05:11:12.457Z,70.08
2023-03-29T05:16:16.177Z,68.64
2023-03-29T05:21:19.454Z,67.86
2023-03-29T05:26:23.295Z,66.27
2023-03-29T05:31:29.480Z,65.07
2023-03-29T05:36:32.648Z,64.62
2023-03-29T05:41:35.110Z,62.56
2023-03-29T05:47:02.423Z,61.09
2023-03-29T05:52:04.775Z,59.66
2023-03-29T05:57:08.684Z,56.88
2023-03-29T06:02:15.187Z,49.69
2023-03-29T06:07:23.760Z,48.42
2023-03-29T06:12:55.817Z,41.57
2023-03-29T06:18:00.612Z,46.29
2023-03-29T06:23:03.114Z,41.58
2023-03-29T06:28:06.290Z,45.85
2023-03-29T06:49:46.068Z,48.93
2023-03-29T06:55:12.343Z,50.74
2023-03-29T07:00:19.811Z,51.98
2023-03-29T07:05:52.451Z,50.81
2023-03-29T07:10:56.456Z,46.08
2023-03-29T07:16:19.689Z,44.78
2023-03-29T07:21:34.860Z,43.31
2023-03-29T07:26:40.526Z,42.84
2023-03-29T07:31:49.269Z,42.18
2023-03-29T07:37:11.921Z,42.59
2023-03-29T07:42:17.199Z,44.61
2023-03-29T07:47:20.265Z,44.58
2023-03-29T07:52:22.962Z,43.64
2023-03-29T07:57:27.318Z,44.41
2023-03-29T08:02:32.348Z,44.27
2023-03-29T08:07:38.110Z,45.80
2023-03-29T08:13:09.947Z,46.46
2023-03-29T08:18:38.972Z,46.70
2023-03-29T08:23:42.446Z,45.37
2023-03-29T08:28:52.536Z,44.95
2023-03-29T08:33:57.645Z,44.55
2023-03-29T08:39:22.939Z,43.53
2023-03-29T08:45:00.327Z,44.34
2023-03-29T08:50:04.387Z,44.06
2023-03-29T08:55:41.842Z,44.50
2023-03-29T09:01:06.399Z,44.50
2023-03-29T09:06:22.377Z,42.60
2023-03-29T09:11:46.321Z,39.86
2023-03-29T09:17:04.167Z,39.55
2023-03-29T09:22:25.089Z,38.14
2023-03-29T09:27:33.719Z,38.87
2023-03-29T09:32:54.714Z,35.42
2023-03-29T09:38:06.231Z,34.19
2023-03-29T09:43:16.331Z,34.01
2023-03-29T09:48:21.178Z,34.73
2023-03-29T09:53:48.045Z,34.15
2023-03-29T09:59:07.691Z,33.40
2023-03-29T10:04:11.652Z,37.13
2023-03-29T10:09:27.732Z,39.99
2023-03-29T10:14:50.354Z,38.93
2023-03-29T10:20:04.500Z,35.79
2023-03-29T10:25:14.593Z,38.17
2023-03-29T10:30:25.752Z,37.81
2023-03-29T10:35:38.550Z,37.21
2023-03-29T10:40:47.544Z,38.19
2023-03-29T10:45:52.950Z,38.97
2023-03-29T10:50:59.709Z,39.69
2023-03-29T10:56:08.869Z,39.45
2023-03-29T11:01:21.399Z,38.01
2023-03-29T11:06:37.277Z,36.60
2023-03-29T11:12:24.583Z,36.76
2023-03-29T11:17:58.870Z,37.12
2023-03-29T11:23:26.870Z,37.78
2023-03-29T11:28:53.391Z,37.23
2023-03-29T11:34:20.539Z,37.71
2023-03-29T11:39:52.159Z,37.27
2023-03-29T11:44:59.046Z,36.48
2023-03-29T11:50:24.165Z,34.32
2023-03-29T11:55:33.863Z,37.76
2023-03-29T12:01:02.732Z,37.08
2023-03-29T12:06:23.371Z,36.14
2023-03-29T12:11:36.803Z,36.64
2023-03-29T12:16:54.178Z,35.98
2023-03-29T12:21:59.382Z,37.92
2023-03-29T12:27:05.084Z,35.79
2023-03-29T12:32:25.930Z,36.52
2023-03-29T12:37:58.923Z,36.46
2023-03-29T12:43:38.062Z,36.38
2023-03-29T12:49:11.861Z,35.66
2023-03-29T12:54:26.810Z,36.42
2023-03-29T12:59:45.259Z,35.70
2023-03-29T13:04:54.841Z,35.61
2023-03-29T13:10:29.096Z,35.64
2023-03-29T13:15:36.313Z,35.12
2023-03-29T13:21:03.424Z,34.27
2023-03-29T13:26:20.023Z,33.92
2023-03-29T13:31:40.701Z,34.83
2023-03-29T13:37:07.142Z,35.70
2023-03-29T13:42:37.898Z,35.96
2023-03-29T13:47:54.973Z,35.05
2023-03-29T13:53:39.887Z,35.43
2023-03-29T13:58:46.895Z,34.98
2023-03-29T14:09:14.847Z,39.47
2023-03-29T14:14:22.131Z,35.94
2023-03-29T14:19:35.456Z,35.80
2023-03-29T14:24:44.453Z,35.26
2023-03-29T14:29:51.794Z,34.43
2023-03-29T14:34:54.447Z,33.97
2023-03-29T14:39:59.402Z,36.10
2023-03-29T14:45:09.617Z,33.41
2023-03-29T14:50:38.426Z,36.54
2023-03-29T14:55:41.131Z,33.15
2023-03-29T15:06:04.403Z,33.11
2023-03-29T15:11:20.719Z,32.59
2023-03-29T15:16:23.453Z,32.77
2023-03-29T15:21:32.207Z,33.42
2023-03-29T15:26:37.875Z,32.79
2023-03-29T15:31:42.337Z,32.93
2023-03-29T15:36:46.766Z,32.93
2023-03-29T15:41:52.219Z,31.72
2023-03-29T15:47:00.345Z,32.77
2023-03-29T15:52:03.405Z,33.13
2023-03-29T15:57:14.041Z,32.60
2023-03-29T16:02:17.730Z,32.21
2023-03-29T16:07:21.166Z,32.38
2023-03-29T16:12:23.559Z,32.74
2023-03-29T16:17:26.857Z,31.99
2023-03-29T16:22:29.747Z,32.82
2023-03-29T16:27:33.226Z,33.22
2023-03-29T16:32:36.125Z,33.03
2023-03-29T16:37:38.724Z,33.33
2023-03-29T16:42:41.767Z,34.04
2023-03-29T16:47:45.202Z,35.23
2023-03-29T16:52:52.887Z,34.99
2023-03-29T16:57:55.312Z,36.17
2023-03-29T17:02:57.746Z,37.62
2023-03-29T17:08:00.396Z,37.78
2023-03-29T17:13:03.034Z,38.64
2023-03-29T17:18:05.406Z,39.83
2023-03-29T17:23:09.413Z,41.37
2023-03-29T17:28:11.972Z,43.41
2023-03-29T17:33:14.300Z,42.66
2023-03-29T17:38:16.835Z,46.54
2023-03-29T17:43:19.558Z,47.37
2023-03-29T17:48:23.949Z,48.56
2023-03-29T17:53:26.422Z,49.20
2023-03-29T17:58:28.715Z,51.05
2023-03-29T18:03:30.998Z,51.60
2023-03-29T18:08:33.833Z,51.54
2023-03-29T18:13:36.263Z,53.56
2023-03-29T18:18:38.942Z,53.62
2023-03-29T18:23:44.427Z,56.79
2023-03-29T18:28:53.318Z,58.64
2023-03-29T18:33:58.155Z,58.79
2023-03-29T18:39:05.999Z,58.43
2023-03-29T18:44:08.360Z,60.47
2023-03-29T18:49:13.661Z,60.55
2023-03-29T18:54:16.322Z,62.67
2023-03-29T18:59:18.930Z,62.68
2023-03-29T19:04:21.393Z,63.78
2023-03-29T19:09:24.043Z,64.91
2023-03-29T19:14:26.546Z,63.34
2023-03-29T19:19:28.888Z,65.50
2023-03-29T19:24:31.500Z,67.36
2023-03-29T19:29:33.913Z,67.46
2023-03-29T19:34:36.574Z,68.47
2023-03-29T19:39:40.265Z,68.83
2023-03-29T19:44:42.664Z,67.74
2023-03-29T19:49:46.792Z,68.08
2023-03-29T19:54:49.235Z,68.53
2023-03-29T19:59:53.643Z,68.27
2023-03-29T20:04:58.173Z,68.33
2023-03-29T20:10:00.660Z,68.78
2023-03-29T20:15:03.490Z,70.78
2023-03-29T20:20:09.720Z,71.56
2023-03-29T20:25:12.225Z,71.96
2023-03-29T20:30:14.831Z,73.38
2023-03-29T20:35:17.240Z,74.09
2023-03-29T20:40:21.098Z,73.23
2023-03-29T20:45:23.598Z,73.45
2023-03-29T20:50:26.813Z,74.09
2023-03-29T20:55:33.907Z,75.37
2023-03-29T21:00:37.973Z,74.81
2023-03-29T21:05:40.408Z,75.20
2023-03-29T21:10:42.725Z,75.31
2023-03-29T21:15:46.932Z,75.66
2023-03-29T21:20:50.056Z,75.41
2023-03-29T21:25:52.272Z,76.91
2023-03-29T21:30:54.898Z,76.75
2023-03-29T21:35:57.576Z,77.67
2023-03-29T21:41:00.908Z,77.01
2023-03-29T21:46:03.193Z,78.02
2023-03-29T21:51:06.061Z,78.46
2023-03-29T21:56:09.041Z,78.75
2023-03-29T22:01:11.700Z,79.11
2023-03-29T22:06:15.059Z,81.19
2023-03-29T22:11:17.626Z,81.35
2023-03-29T22:16:20.095Z,81.20
2023-03-29T22:21:25.115Z,81.20
2023-03-29T22:26:30.886Z,81.76
2023-03-29T22:31:33.449Z,82.89
2023-03-29T22:36:37.056Z,82.41
2023-03-29T22:41:39.684Z,82.56
2023-03-29T22:46:42.839Z,82.14
2023-03-29T22:51:45.030Z,83.07
2023-03-29T22:56:47.254Z,82.79
2023-03-29T23:01:50.316Z,83.37
2023-03-29T23:06:53.412Z,83.38
2023-03-29T23:11:55.993Z,83.82
2023-03-29T23:16:58.543Z,83.49
2023-03-29T23:22:00.852Z,83.87
2023-03-29T23:27:05.163Z,82.84
2023-03-29T23:32:07.855Z,82.99
2023-03-29T23:37:10.981Z,84.03
2023-03-29T23:42:13.304Z,83.85
2023-03-29T23:47:15.956Z,84.73
2023-03-29T23:52:18.413Z,84.54
2023-03-29T23:57:21.598Z,87.14
